Time;durP1;ratioP1;P1;durP2;ratioP2;P2;SDS_P1;SDS_P2;PMS_P1;PMS_P2;Temp;Humidity;BMP_temperature;BMP_pressure;BME280_temperature;BME280_humidity;BME280_pressure;Samples;Min_cycle;Max_cycle;Signal;HPM_P1;HPM_P2
2023/11/21 00:01:39;;;;;;;11.68;6.25;;;;;;;;;;10287417;28;20026;-58
2023/11/21 00:06:41;;;;;;;10.18;6.72;;;;;;;;;;10287590;28;20035;-58
2023/11/21 00:11:41;;;;;;;11.70;6.53;;;;;;;;;;10287143;28;20120;-59
2023/11/21 00:16:42;;;;;;;11.57;6.82;;;;;;;;;;10286627;28;20425;-58
2023/11/21 00:21:44;;;;;;;10.60;6.47;;;;;;;;;;10286696;28;20037;-58
2023/11/21 00:26:45;;;;;;;12.48;6.53;;;;;;;;;;10287322;28;20031;-58
2023/11/21 00:31:45;;;;;;;12.45;5.63;;;;;;;;;;10286807;28;20034;-58
2023/11/21 00:36:46;;;;;;;8.57;6.00;;;;;;;;;;10286498;28;20031;-58
2023/11/21 00:41:46;;;;;;;10.13;6.05;;;;;;;;;;10285986;28;20035;-58
2023/11/21 00:46:47;;;;;;;6.97;5.40;;;;;;;;;;10285426;28;20027;-56
2023/11/21 00:51:48;;;;;;;11.60;5.85;;;;;;;;;;10285564;28;20057;-58
2023/11/21 00:56:48;;;;;;;15.95;5.82;;;;;;;;;;10285396;28;20023;-57
2023/11/21 01:01:49;;;;;;;8.90;5.90;;;;;;;;;;10285397;28;20082;-58
2023/11/21 01:06:49;;;;;;;8.43;5.60;;;;;;;;;;10285367;28;20178;-58
2023/11/21 01:11:51;;;;;;;9.50;5.85;;;;;;;;;;10283769;28;20035;-58
2023/11/21 01:16:53;;;;;;;7.28;5.32;;;;;;;;;;10284875;28;20092;-58
2023/11/21 01:21:53;;;;;;;9.88;5.63;;;;;;;;;;10285835;28;20038;-59
2023/11/21 01:26:54;;;;;;;8.25;5.40;;;;;;;;;;10283965;28;20042;-58
2023/11/21 01:31:54;;;;;;;12.05;5.25;;;;;;;;;;10283860;28;20065;-57
2023/11/21 01:36:56;;;;;;;8.82;5.28;;;;;;;;;;10284799;28;20030;-58
2023/11/21 01:41:58;;;;;;;8.25;5.50;;;;;;;;;;10284331;28;20364;-59
2023/11/21 01:46:59;;;;;;;7.43;5.25;;;;;;;;;;10284321;28;20050;-58
2023/11/21 01:52:00;;;;;;;9.20;5.45;;;;;;;;;;10284246;28;20066;-58
2023/11/21 01:57:02;;;;;;;7.97;5.40;;;;;;;;;;10270743;28;20019;-58
2023/11/21 02:02:07;;;;;;;9.73;5.97;;;;;;;;;;10283500;28;20045;-59
2023/11/21 02:07:07;;;;;;;7.47;5.43;;;;;;;;;;10283873;28;20536;-58
2023/11/21 02:12:10;;;;;;;8.38;5.28;;;;;;;;;;10283545;28;20057;-58
2023/11/21 02:17:13;;;;;;;7.90;5.78;;;;;;;;;;10283733;28;20019;-58
2023/11/21 02:22:16;;;;;;;7.25;5.00;;;;;;;;;;10283186;28;20038;-58
2023/11/21 02:27:21;;;;;;;8.35;5.95;;;;;;;;;;10271846;28;20046;-58
2023/11/21 02:32:22;;;;;;;6.90;4.85;;;;;;;;;;10271459;28;20027;-58
2023/11/21 02:37:23;;;;;;;7.32;5.13;;;;;;;;;;10284072;28;20405;-57
2023/11/21 02:42:24;;;;;;;5.25;4.72;;;;;;;;;;10290194;28;20035;-58
2023/11/21 02:47:24;;;;;;;6.90;5.32;;;;;;;;;;10290603;28;20478;-58
2023/11/21 02:52:25;;;;;;;7.20;5.10;;;;;;;;;;10289510;28;20046;-59
2023/11/21 02:57:25;;;;;;;7.43;5.03;;;;;;;;;;10290128;28;20027;-58
2023/11/21 03:02:26;;;;;;;6.22;5.00;;;;;;;;;;10290259;28;20041;-61
2023/11/21 03:07:27;;;;;;;7.28;4.78;;;;;;;;;;10290130;28;20023;-58
2023/11/21 03:12:27;;;;;;;7.95;4.65;;;;;;;;;;10289603;28;20031;-62
2023/11/21 03:17:29;;;;;;;5.35;4.55;;;;;;;;;;10289820;28;20039;-57
2023/11/21 03:22:29;;;;;;;7.75;4.80;;;;;;;;;;10278125;28;20483;-58
2023/11/21 03:27:30;;;;;;;5.65;4.55;;;;;;;;;;10288191;28;20026;-58
2023/11/21 03:32:32;;;;;;;6.43;4.75;;;;;;;;;;10288656;28;20089;-58
2023/11/21 03:37:33;;;;;;;7.00;4.57;;;;;;;;;;10289189;28;20039;-59
2023/11/21 03:42:34;;;;;;;6.35;4.50;;;;;;;;;;10288883;28;20030;-58
2023/11/21 03:47:35;;;;;;;6.65;4.35;;;;;;;;;;10288644;28;20144;-58
2023/11/21 03:52:37;;;;;;;8.52;4.55;;;;;;;;;;10287093;28;20134;-58
2023/11/21 03:57:37;;;;;;;6.47;4.47;;;;;;;;;;10287953;28;20085;-58
2023/11/21 04:02:38;;;;;;;5.32;4.15;;;;;;;;;;10287788;28;20034;-58
2023/11/21 04:07:38;;;;;;;5.63;4.50;;;;;;;;;;10287942;28;20034;-58
2023/11/21 04:12:39;;;;;;;6.10;4.18;;;;;;;;;;10287382;28;20497;-58
2023/11/21 04:17:40;;;;;;;7.28;4.25;;;;;;;;;;10287029;28;20045;-58
2023/11/21 04:22:44;;;;;;;6.28;4.35;;;;;;;;;;10286980;28;20099;-57
2023/11/21 04:27:45;;;;;;;5.50;4.43;;;;;;;;;;10287079;28;20042;-58
2023/11/21 04:32:46;;;;;;;5.93;4.28;;;;;;;;;;10286309;28;20049;-58
2023/11/21 04:37:47;;;;;;;4.63;4.00;;;;;;;;;;10286236;28;20468;-58
2023/11/21 04:42:48;;;;;;;5.78;4.22;;;;;;;;;;10286215;28;20077;-57
2023/11/21 04:47:48;;;;;;;4.78;4.05;;;;;;;;;;10285734;28;20392;-58
2023/11/21 04:52:49;;;;;;;4.57;3.95;;;;;;;;;;10285639;28;20051;-57
2023/11/21 04:57:50;;;;;;;6.60;3.60;;;;;;;;;;10286187;28;20027;-57
2023/11/21 05:02:50;;;;;;;7.38;4.00;;;;;;;;;;10284982;28;20066;-58
2023/11/21 05:07:53;;;;;;;9.43;3.67;;;;;;;;;;10285114;28;20041;-58
2023/11/21 05:12:53;;;;;;;6.28;4.28;;;;;;;;;;10284759;28;20394;-56
2023/11/21 05:17:55;;;;;;;5.10;3.45;;;;;;;;;;10283898;28;20027;-57
2023/11/21 05:22:55;;;;;;;6.15;4.25;;;;;;;;;;10284278;28;20039;-57
2023/11/21 05:27:56;;;;;;;6.30;3.85;;;;;;;;;;10284957;28;20030;-56
2023/11/21 05:32:56;;;;;;;4.20;3.58;;;;;;;;;;10284485;28;20390;-57
2023/11/21 05:37:57;;;;;;;7.00;3.60;;;;;;;;;;10284431;28;20509;-57
2023/11/21 05:42:57;;;;;;;4.75;3.70;;;;;;;;;;10283933;28;20109;-57
2023/11/21 05:47:59;;;;;;;4.35;3.92;;;;;;;;;;10283400;28;20031;-58
2023/11/21 05:53:00;;;;;;;4.57;3.50;;;;;;;;;;10284154;28;20109;-58
2023/11/21 05:58:01;;;;;;;4.18;3.28;;;;;;;;;;10279955;28;20110;-58
2023/11/21 06:03:01;;;;;;;4.57;3.58;;;;;;;;;;10284363;28;20058;-58
2023/11/21 06:08:02;;;;;;;4.32;3.53;;;;;;;;;;10279526;28;20034;-58
2023/11/21 06:13:03;;;;;;;4.43;3.60;;;;;;;;;;10281893;28;20031;-57
2023/11/21 06:18:06;;;;;;;4.22;3.45;;;;;;;;;;10286649;28;20685;-57
2023/11/21 06:23:07;;;;;;;5.85;3.53;;;;;;;;;;10288919;28;20031;-57
2023/11/21 06:28:07;;;;;;;5.70;3.55;;;;;;;;;;10291850;28;20030;-58
2023/11/21 06:33:08;;;;;;;3.50;3.10;;;;;;;;;;10290823;28;20037;-58
2023/11/21 06:38:09;;;;;;;3.90;3.50;;;;;;;;;;10290604;28;20042;-57
2023/11/21 06:43:10;;;;;;;5.32;3.65;;;;;;;;;;10294646;28;20403;-55
2023/11/21 06:48:10;;;;;;;7.72;3.80;;;;;;;;;;10291710;28;20022;-58
2023/11/21 06:53:11;;;;;;;12.95;3.80;;;;;;;;;;10287281;28;20057;-58
2023/11/21 06:58:11;;;;;;;8.23;3.88;;;;;;;;;;10289502;28;20026;-58
2023/11/21 07:03:12;;;;;;;5.13;3.80;;;;;;;;;;10295511;28;20030;-58
2023/11/21 07:08:14;;;;;;;24.80;5.25;;;;;;;;;;10285463;28;20391;-58
2023/11/21 07:13:14;;;;;;;6.53;4.10;;;;;;;;;;10288405;28;20030;-58
2023/11/21 07:18:15;;;;;;;21.80;4.97;;;;;;;;;;10289300;28;20030;-61
2023/11/21 07:23:15;;;;;;;8.35;4.10;;;;;;;;;;10288326;28;20053;-57
2023/11/21 07:28:16;;;;;;;8.63;4.35;;;;;;;;;;10289254;28;20030;-60
2023/11/21 07:33:17;;;;;;;7.93;4.05;;;;;;;;;;10288213;28;20037;-57
2023/11/21 07:38:18;;;;;;;8.93;4.28;;;;;;;;;;10288604;28;20031;-57
2023/11/21 07:43:19;;;;;;;7.65;4.80;;;;;;;;;;10288553;28;20026;-60
2023/11/21 07:48:20;;;;;;;5.88;4.07;;;;;;;;;;10288302;28;20022;-58
2023/11/21 07:53:21;;;;;;;8.85;4.20;;;;;;;;;;10288252;28;20035;-59
2023/11/21 07:58:22;;;;;;;7.05;4.00;;;;;;;;;;10288288;28;20368;-61
2023/11/21 08:03:23;;;;;;;7.53;3.95;;;;;;;;;;10287594;28;20035;-60
2023/11/21 08:08:24;;;;;;;5.38;3.90;;;;;;;;;;10288413;28;20094;-63
2023/11/21 08:13:26;;;;;;;6.75;3.67;;;;;;;;;;10287259;28;20039;-59
2023/11/21 08:18:27;;;;;;;7.25;4.40;;;;;;;;;;10287930;28;20115;-58
2023/11/21 08:23:28;;;;;;;9.65;3.85;;;;;;;;;;10287685;28;20550;-58
2023/11/21 08:28:29;;;;;;;7.35;4.65;;;;;;;;;;10287038;28;20158;-57
2023/11/21 08:33:29;;;;;;;7.18;4.15;;;;;;;;;;10286411;28;20371;-59
2023/11/21 08:38:30;;;;;;;6.25;4.10;;;;;;;;;;10285423;28;20356;-60
2023/11/21 08:43:30;;;;;;;8.30;3.42;;;;;;;;;;10284613;28;20034;-57
2023/11/21 08:48:31;;;;;;;4.35;3.63;;;;;;;;;;10284160;28;20030;-60
2023/11/21 08:53:32;;;;;;;7.00;4.70;;;;;;;;;;10284911;28;20043;-58
2023/11/21 08:58:33;;;;;;;6.20;3.58;;;;;;;;;;10285662;28;20471;-58
2023/11/21 09:03:34;;;;;;;5.70;3.05;;;;;;;;;;10285865;28;20023;-58
2023/11/21 09:08:35;;;;;;;10.63;4.50;;;;;;;;;;10285252;28;20486;-58
2023/11/21 09:13:36;;;;;;;7.65;3.65;;;;;;;;;;10286029;28;20034;-57
2023/11/21 09:18:36;;;;;;;4.13;3.72;;;;;;;;;;10284542;28;20018;-59
2023/11/21 09:23:37;;;;;;;6.05;3.90;;;;;;;;;;10279370;28;20077;-57
2023/11/21 09:28:39;;;;;;;5.95;4.28;;;;;;;;;;10282873;28;20027;-59
2023/11/21 09:33:39;;;;;;;7.35;4.03;;;;;;;;;;10282448;28;20030;-56
2023/11/21 09:38:44;;;;;;;6.82;3.90;;;;;;;;;;10269627;28;20019;-58
2023/11/21 09:43:47;;;;;;;4.75;3.70;;;;;;;;;;10269593;28;20042;-57
2023/11/21 09:48:56;;;;;;;4.97;3.25;;;;;;;;;;10281670;28;20097;-58
2023/11/21 09:53:58;;;;;;;;;;;;;;;;;;10280361;28;20483;-59
2023/11/21 09:59:04;;;;;;;5.80;3.65;;;;;;;;;;10276922;28;20077;-58
2023/11/21 10:04:11;;;;;;;5.13;3.65;;;;;;;;;;10284692;28;20098;-58
2023/11/21 10:09:15;;;;;;;8.90;3.97;;;;;;;;;;10292653;28;20516;-59
2023/11/21 10:14:20;;;;;;;9.38;3.70;;;;;;;;;;10283138;28;20031;-60
2023/11/21 10:19:22;;;;;;;5.95;3.60;;;;;;;;;;10285064;28;20471;-63
2023/11/21 10:24:23;;;;;;;4.03;3.30;;;;;;;;;;10302319;28;20065;-62
2023/11/21 10:29:23;;;;;;;7.28;3.83;;;;;;;;;;10296090;28;20093;-61
2023/11/21 10:34:24;;;;;;;4.13;3.20;;;;;;;;;;10294516;28;20027;-62
2023/11/21 10:39:30;;;;;;;4.88;3.78;;;;;;;;;;10301149;28;20039;-58
2023/11/21 10:44:31;;;;;;;6.30;3.50;;;;;;;;;;10271487;28;20396;-56
2023/11/21 10:49:33;;;;;;;5.15;3.53;;;;;;;;;;10284654;28;20422;-57
2023/11/21 10:54:35;;;;;;;4.70;3.22;;;;;;;;;;10281059;28;20046;-58
2023/11/21 10:59:36;;;;;;;4.20;3.72;;;;;;;;;;10278438;28;20031;-58
2023/11/21 11:04:38;;;;;;;4.25;3.60;;;;;;;;;;10281068;28;20034;-57
2023/11/21 11:09:38;;;;;;;4.18;3.67;;;;;;;;;;10288726;28;20066;-57
2023/11/21 11:14:41;;;;;;;6.40;3.85;;;;;;;;;;10305020;28;20038;-56
2023/11/21 11:19:42;;;;;;;4.07;3.40;;;;;;;;;;10289375;28;20042;-57
2023/11/21 11:25:29;;;;;;;6.68;4.00;;;;;;;;;;10290031;28;20093;-57
2023/11/21 11:31:08;;;;;;;4.93;3.80;;;;;;;;;;10289792;28;20026;-58
2023/11/21 11:36:29;;;;;;;;;;;;;;;;;;10286025;28;20034;-57
2023/11/21 11:41:34;;;;;;;13.15;9.27;;;;;;;;;;10280900;28;19914;-56
2023/11/21 11:46:46;;;;;;;14.88;11.30;;;;;;;;;;10287716;28;20022;-57
2023/11/21 11:51:46;;;;;;;22.05;17.00;;;;;;;;;;10299544;23;20055;-61
2023/11/21 11:56:47;;;;;;;25.52;19.33;;;;;;;;;;10288760;28;20070;-61
2023/11/21 12:01:49;;;;;;;29.55;20.67;;;;;;;;;;10288164;28;20035;-61
2023/11/21 12:06:54;;;;;;;27.90;22.20;;;;;;;;;;10288042;28;20042;-61
2023/11/21 12:11:58;;;;;;;30.05;23.83;;;;;;;;;;10284794;28;20612;-58
2023/11/21 12:16:59;;;;;;;31.77;24.73;;;;;;;;;;10284808;28;20067;-59
2023/11/21 12:22:00;;;;;;;30.35;23.25;;;;;;;;;;10287606;28;20066;-58
2023/11/21 12:27:00;;;;;;;28.40;21.77;;;;;;;;;;10286532;28;20035;-58
2023/11/21 12:32:01;;;;;;;30.58;20.00;;;;;;;;;;10283282;28;20042;-58
2023/11/21 12:37:02;;;;;;;30.95;20.48;;;;;;;;;;10284484;28;20031;-58
2023/11/21 12:42:04;;;;;;;29.02;19.80;;;;;;;;;;10286144;28;20039;-59
2023/11/21 12:47:05;;;;;;;25.98;18.77;;;;;;;;;;10281933;28;20113;-58
2023/11/21 12:52:06;;;;;;;28.73;19.13;;;;;;;;;;10281438;28;20074;-59
2023/11/21 12:57:08;;;;;;;21.40;17.52;;;;;;;;;;10301228;28;20566;-58
2023/11/21 13:02:09;;;;;;;22.60;17.13;;;;;;;;;;10285585;28;20030;-59
2023/11/21 13:07:14;;;;;;;21.52;16.63;;;;;;;;;;10280982;28;20038;-59
2023/11/21 13:12:18;;;;;;;26.33;17.08;;;;;;;;;;10280725;28;20058;-58
2023/11/21 13:17:19;;;;;;;22.65;15.82;;;;;;;;;;10285583;28;20043;-59
2023/11/21 13:22:20;;;;;;;22.88;15.13;;;;;;;;;;10284322;28;20030;-60
2023/11/21 13:27:21;;;;;;;24.45;15.13;;;;;;;;;;10266311;28;20028;-59
2023/11/21 13:32:22;;;;;;;19.45;13.82;;;;;;;;;;10254892;28;20031;-59
2023/11/21 13:37:24;;;;;;;20.35;13.50;;;;;;;;;;10273447;28;20039;-58
2023/11/21 13:42:28;;;;;;;20.08;13.30;;;;;;;;;;10273467;28;20090;-61
2023/11/21 13:47:30;;;;;;;16.33;13.07;;;;;;;;;;10292025;28;20439;-62
2023/11/21 13:52:33;;;;;;;25.00;12.77;;;;;;;;;;10301848;28;20065;-62
2023/11/21 13:57:34;;;;;;;17.38;11.75;;;;;;;;;;10294091;28;20035;-59
2023/11/21 14:02:39;;;;;;;18.35;12.10;;;;;;;;;;10291832;28;20139;-59
2023/11/21 14:07:47;;;;;;;22.80;12.43;;;;;;;;;;10299976;28;20066;-59
2023/11/21 14:12:48;;;;;;;20.65;12.23;;;;;;;;;;10285647;28;20042;-61
2023/11/21 14:17:49;;;;;;;14.48;10.55;;;;;;;;;;10302105;28;20039;-58
2023/11/21 14:22:50;;;;;;;18.35;11.05;;;;;;;;;;10293554;28;20081;-59
2023/11/21 14:27:51;;;;;;;14.60;10.20;;;;;;;;;;10285370;28;20033;-59
2023/11/21 14:32:51;;;;;;;12.55;9.15;;;;;;;;;;10282634;28;20061;-60
2023/11/21 14:37:53;;;;;;;15.57;9.60;;;;;;;;;;10290007;28;20144;-59
2023/11/21 14:42:56;;;;;;;16.77;9.98;;;;;;;;;;10294071;28;20101;-59
2023/11/21 14:48:05;;;;;;;14.10;9.38;;;;;;;;;;10296693;28;20057;-58
2023/11/21 14:53:06;;;;;;;13.82;9.05;;;;;;;;;;10297061;28;20394;-59
2023/11/21 14:58:12;;;;;;;14.07;8.38;;;;;;;;;;10279933;28;20043;-61
2023/11/21 15:04:23;;;;;;;12.57;8.45;;;;;;;;;;10260086;28;20035;-60
2023/11/21 15:08:43;;;;;;;12.13;8.13;;;;;;;;;;10253373;28;20082;-59
2023/11/21 15:13:43;;;;;;;14.50;7.65;;;;;;;;;;10248303;28;20118;-60
2023/11/21 15:18:44;;;;;;;11.48;7.25;;;;;;;;;;10262432;28;20239;-61
2023/11/21 15:23:44;;;;;;;10.88;7.43;;;;;;;;;;10256611;28;20035;-59
2023/11/21 15:28:45;;;;;;;11.55;6.57;;;;;;;;;;10260922;28;20028;-59
2023/11/21 15:33:46;;;;;;;8.77;6.90;;;;;;;;;;10269342;28;20395;-59
2023/11/21 15:38:46;;;;;;;13.30;6.97;;;;;;;;;;10260091;28;20468;-59
2023/11/21 15:43:48;;;;;;;10.25;6.45;;;;;;;;;;10255244;28;20494;-59
2023/11/21 15:48:52;;;;;;;12.77;6.85;;;;;;;;;;10256371;28;20041;-61
2023/11/21 15:53:53;;;;;;;9.30;6.35;;;;;;;;;;10250534;28;20065;-59
2023/11/21 15:58:54;;;;;;;8.57;6.00;;;;;;;;;;10258361;28;20045;-62
2023/11/21 16:03:54;;;;;;;10.38;6.70;;;;;;;;;;10284581;28;20035;-59
2023/11/21 16:08:58;;;;;;;8.70;6.10;;;;;;;;;;10298776;28;20023;-61
2023/11/21 16:13:58;;;;;;;9.15;5.65;;;;;;;;;;10260380;28;20023;-61
2023/11/21 16:18:59;;;;;;;8.93;5.28;;;;;;;;;;10277012;28;20478;-61
2023/11/21 16:23:59;;;;;;;7.40;5.47;;;;;;;;;;10250982;28;20155;-61
2023/11/21 16:29:01;;;;;;;7.10;4.82;;;;;;;;;;10253853;28;20483;-60
2023/11/21 16:34:16;;;;;;;8.77;5.22;;;;;;;;;;10252548;28;20110;-59
2023/11/21 16:39:19;;;;;;;8.07;5.45;;;;;;;;;;10255253;28;20031;-61
2023/11/21 16:44:21;;;;;;;6.72;5.18;;;;;;;;;;10262053;28;20462;-59
2023/11/21 16:49:22;;;;;;;10.85;5.00;;;;;;;;;;10282518;28;20121;-60
2023/11/21 16:54:23;;;;;;;16.40;5.18;;;;;;;;;;10271575;28;20051;-59
2023/11/21 16:59:24;;;;;;;7.20;4.60;;;;;;;;;;10262296;28;20027;-59
2023/11/21 17:04:24;;;;;;;6.68;4.57;;;;;;;;;;10252249;28;20379;-60
2023/11/21 17:09:25;;;;;;;8.02;4.85;;;;;;;;;;10253742;28;20031;-59
2023/11/21 17:14:26;;;;;;;8.05;4.28;;;;;;;;;;10253055;28;20155;-59
2023/11/21 17:19:31;;;;;;;6.25;4.63;;;;;;;;;;10258751;28;20049;-60
2023/11/21 17:24:32;;;;;;;10.68;4.50;;;;;;;;;;10251430;28;20027;-59
2023/11/21 17:29:33;;;;;;;6.78;4.55;;;;;;;;;;10264751;28;20426;-59
2023/11/21 17:34:34;;;;;;;5.97;4.28;;;;;;;;;;10283758;28;20069;-59
2023/11/21 17:39:35;;;;;;;4.65;4.20;;;;;;;;;;10280156;28;20026;-59
2023/11/21 17:44:35;;;;;;;6.68;4.55;;;;;;;;;;10274606;28;20385;-59
2023/11/21 17:49:36;;;;;;;7.28;4.28;;;;;;;;;;10272044;28;20034;-59
2023/11/21 17:54:40;;;;;;;8.50;4.40;;;;;;;;;;10291001;28;20054;-60
2023/11/21 17:59:40;;;;;;;7.63;4.78;;;;;;;;;;10288536;28;20031;-58
2023/11/21 18:04:41;;;;;;;7.28;4.10;;;;;;;;;;10282568;28;20035;-59
2023/11/21 18:09:41;;;;;;;5.90;4.30;;;;;;;;;;10278805;28;20030;-59
2023/11/21 18:14:43;;;;;;;6.82;4.43;;;;;;;;;;10278620;28;20394;-59
2023/11/21 18:19:44;;;;;;;6.40;4.10;;;;;;;;;;10270424;28;20537;-60
2023/11/21 18:24:45;;;;;;;9.60;5.30;;;;;;;;;;10296433;28;20038;-60
2023/11/21 18:29:45;;;;;;;5.72;4.30;;;;;;;;;;10289354;28;20090;-59
2023/11/21 18:34:46;;;;;;;7.45;4.95;;;;;;;;;;10291157;28;20277;-59
2023/11/21 18:39:47;;;;;;;10.60;4.82;;;;;;;;;;10307664;28;20055;-58
2023/11/21 18:44:48;;;;;;;24.50;5.35;;;;;;;;;;10273071;28;20028;-59
2023/11/21 18:49:49;;;;;;;17.35;5.15;;;;;;;;;;10251679;28;20039;-59
2023/11/21 18:54:50;;;;;;;20.63;4.35;;;;;;;;;;10276516;28;20037;-59
2023/11/21 18:59:50;;;;;;;12.77;4.78;;;;;;;;;;10262942;28;20054;-59
2023/11/21 19:04:51;;;;;;;10.23;4.63;;;;;;;;;;10277700;28;20031;-59
2023/11/21 19:09:52;;;;;;;6.90;4.32;;;;;;;;;;10273240;28;20031;-59
2023/11/21 19:14:53;;;;;;;11.98;4.20;;;;;;;;;;10282715;28;20039;-59
2023/11/21 19:19:53;;;;;;;7.40;4.35;;;;;;;;;;10282209;28;20402;-59
2023/11/21 19:24:54;;;;;;;13.68;4.13;;;;;;;;;;10289760;28;20394;-58
2023/11/21 19:29:55;;;;;;;7.05;4.40;;;;;;;;;;10287724;28;20143;-58
2023/11/21 19:34:55;;;;;;;8.93;3.78;;;;;;;;;;10294190;28;20182;-59
2023/11/21 19:39:56;;;;;;;6.72;4.40;;;;;;;;;;10278894;28;20046;-59
2023/11/21 19:44:57;;;;;;;8.95;4.38;;;;;;;;;;10291313;28;20047;-59
2023/11/21 19:49:57;;;;;;;10.32;4.43;;;;;;;;;;10283027;28;20046;-59
2023/11/21 19:54:59;;;;;;;17.45;5.95;;;;;;;;;;10279896;28;20030;-61
2023/11/21 19:59:59;;;;;;;17.42;5.50;;;;;;;;;;10280638;28;20453;-60
2023/11/21 20:05:00;;;;;;;9.93;4.55;;;;;;;;;;10269469;28;20030;-59
2023/11/21 20:10:01;;;;;;;16.48;4.93;;;;;;;;;;10286895;28;20026;-60
2023/11/21 20:15:04;;;;;;;13.25;4.70;;;;;;;;;;10284571;28;20037;-60
2023/11/21 20:20:05;;;;;;;12.43;4.53;;;;;;;;;;10271472;28;20122;-59
2023/11/21 20:25:06;;;;;;;13.85;5.28;;;;;;;;;;10282206;28;20210;-59
2023/11/21 20:30:08;;;;;;;10.18;4.47;;;;;;;;;;10282972;28;20038;-59
2023/11/21 20:35:10;;;;;;;8.68;4.18;;;;;;;;;;10286009;28;20425;-62
2023/11/21 20:40:11;;;;;;;6.88;4.60;;;;;;;;;;10286660;28;20058;-59
2023/11/21 20:45:13;;;;;;;14.55;4.50;;;;;;;;;;10282687;28;20049;-59
2023/11/21 20:50:14;;;;;;;14.85;5.10;;;;;;;;;;10280801;28;20036;-59
2023/11/21 20:55:16;;;;;;;7.05;4.03;;;;;;;;;;10275887;28;20406;-60
2023/11/21 21:00:18;;;;;;;9.82;4.20;;;;;;;;;;10281770;28;20509;-59
2023/11/21 21:05:20;;;;;;;10.45;4.15;;;;;;;;;;10282722;28;20038;-59
2023/11/21 21:10:22;;;;;;;11.00;3.90;;;;;;;;;;10280367;28;20034;-59
2023/11/21 21:15:22;;;;;;;10.30;4.45;;;;;;;;;;10284738;28;20097;-59
2023/11/21 21:20:44;;;;;;;12.73;4.55;;;;;;;;;;10290835;28;20498;-59
2023/11/21 21:25:45;;;;;;;12.90;4.20;;;;;;;;;;10187491;29;20040;-60
2023/11/21 21:30:46;;;;;;;10.80;4.28;;;;;;;;;;10189116;29;20487;-58
2023/11/21 21:35:47;;;;;;;6.18;4.13;;;;;;;;;;10193694;29;20040;-59
2023/11/21 21:40:49;;;;;;;12.20;4.25;;;;;;;;;;10200682;29;20071;-59
2023/11/21 21:45:50;;;;;;;7.03;4.28;;;;;;;;;;10188027;29;20100;-59
2023/11/21 21:50:50;;;;;;;8.45;4.82;;;;;;;;;;10192960;29;20051;-59
2023/11/21 21:55:51;;;;;;;13.85;4.28;;;;;;;;;;10192181;29;20047;-59
2023/11/21 22:00:51;;;;;;;8.98;4.07;;;;;;;;;;10220506;28;20054;-59
2023/11/21 22:05:52;;;;;;;9.73;3.75;;;;;;;;;;10275499;28;20042;-58
2023/11/21 22:10:53;;;;;;;8.00;4.45;;;;;;;;;;10271639;28;20033;-58
2023/11/21 22:15:53;;;;;;;9.55;4.35;;;;;;;;;;10279818;28;20061;-58
2023/11/21 22:20:54;;;;;;;9.95;4.00;;;;;;;;;;10275224;28;20031;-59
2023/11/21 22:25:55;;;;;;;7.65;4.10;;;;;;;;;;10273937;28;20026;-61
2023/11/21 22:30:55;;;;;;;5.82;3.97;;;;;;;;;;10276395;28;20062;-61
2023/11/21 22:35:56;;;;;;;4.65;3.40;;;;;;;;;;10277803;28;20093;-61
2023/11/21 22:40:57;;;;;;;14.82;4.20;;;;;;;;;;10277330;28;20509;-61
2023/11/21 22:45:57;;;;;;;6.10;3.88;;;;;;;;;;10277751;28;20051;-60
2023/11/21 22:50:58;;;;;;;8.95;3.30;;;;;;;;;;10274713;28;20094;-61
2023/11/21 22:55:58;;;;;;;7.82;3.97;;;;;;;;;;10279747;28;20031;-60
2023/11/21 23:01:00;;;;;;;9.90;4.10;;;;;;;;;;10275417;28;20500;-61
2023/11/21 23:06:01;;;;;;;12.70;4.22;;;;;;;;;;10270581;28;20027;-59
2023/11/21 23:11:01;;;;;;;5.10;3.47;;;;;;;;;;10278238;28;20027;-60
2023/11/21 23:16:02;;;;;;;6.80;3.92;;;;;;;;;;10283501;28;20030;-60
2023/11/21 23:21:02;;;;;;;7.60;4.07;;;;;;;;;;10286128;28;20085;-60
2023/11/21 23:26:03;;;;;;;7.32;3.78;;;;;;;;;;10284558;28;20103;-60
2023/11/21 23:31:04;;;;;;;4.30;3.15;;;;;;;;;;10300366;28;20027;-60
2023/11/21 23:36:05;;;;;;;6.90;3.20;;;;;;;;;;10285165;28;20434;-60
2023/11/21 23:41:06;;;;;;;5.82;3.50;;;;;;;;;;10287226;28;20054;-60
2023/11/21 23:46:07;;;;;;;4.75;3.55;;;;;;;;;;10286858;28;20037;-60
2023/11/21 23:51:09;;;;;;;4.40;3.25;;;;;;;;;;10282140;28;20042;-60
2023/11/21 23:56:10;;;;;;;4.93;3.30;;;;;;;;;;10290069;28;20035;-60
